createdAt,value
2019-02-07T00:01:19.650Z,100177.20
2019-02-07T00:04:10.586Z,100184.28
2019-02-07T00:06:54.685Z,100171.69
2019-02-07T00:09:46.677Z,100166.89
2019-02-07T00:12:37.599Z,100162.37
2019-02-07T00:15:20.952Z,100156.48
2019-02-07T00:18:11.965Z,100153.50
2019-02-07T00:20:55.758Z,100154.01
2019-02-07T00:23:47.278Z,100148.38
2019-02-07T00:26:30.470Z,100140.84
2019-02-07T00:29:21.748Z,100130.14
2019-02-07T00:32:05.362Z,100127.81
2019-02-07T00:35:09.182Z,100127.66
2019-02-07T00:38:19.417Z,100132.48
2019-02-07T00:41:22.726Z,100113.35
2019-02-07T00:44:33.264Z,100101.48
2019-02-07T00:47:35.761Z,100093.36
2019-02-07T00:50:46.036Z,100099.00
2019-02-07T00:53:48.670Z,100082.44
2019-02-07T00:56:58.921Z,100080.53
2019-02-07T01:00:02.074Z,100068.39
2019-02-07T01:03:12.358Z,100068.23
2019-02-07T01:06:17.320Z,100054.22
2019-02-07T01:09:27.596Z,100057.61
2019-02-07T01:12:30.215Z,100052.41
2019-02-07T01:15:40.535Z,100052.61
2019-02-07T01:18:43.232Z,100031.08
2019-02-07T01:21:53.507Z,100027.80
2019-02-07T01:24:56.245Z,100026.72
2019-02-07T01:28:06.486Z,100040.44
2019-02-07T01:31:09.678Z,100012.75
2019-02-07T01:34:19.968Z,100023.79
2019-02-07T01:37:22.468Z,100012.55
2019-02-07T01:40:32.709Z,100005.79
2019-02-07T01:43:35.946Z,99999.31
2019-02-07T01:46:46.199Z,99996.08
2019-02-07T01:49:49.279Z,99992.19
2019-02-07T01:52:52.302Z,99972.70
2019-02-07T01:56:02.554Z,99973.66
2019-02-07T01:59:05.205Z,99970.66
2019-02-07T02:02:15.516Z,99962.91
2019-02-07T02:05:19.672Z,99963.83
2019-02-07T02:08:23.354Z,99961.23
2019-02-07T02:11:33.620Z,99951.73
2019-02-07T02:14:36.863Z,99938.09
2019-02-07T02:17:47.138Z,99940.84
2019-02-07T02:20:50.320Z,99932.72
2019-02-07T02:23:53.343Z,99922.16
2019-02-07T02:27:03.568Z,99915.34
2019-02-07T02:30:10.065Z,99913.88
2019-02-07T02:33:20.335Z,99919.13
2019-02-07T02:36:23.053Z,99892.83
2019-02-07T02:39:25.527Z,99897.19
2019-02-07T02:42:35.808Z,99906.50
2019-02-07T02:45:38.695Z,99897.19
2019-02-07T02:48:48.983Z,99891.14
2019-02-07T02:51:52.247Z,99868.89
2019-02-07T02:54:56.533Z,99872.13
2019-02-07T02:58:07.320Z,99864.74
2019-02-07T03:01:29.590Z,99859.52
2019-02-07T03:04:44.155Z,99860.52
2019-02-07T03:08:13.223Z,99852.74
2019-02-07T03:11:27.185Z,99845.72
2019-02-07T03:14:56.272Z,99835.64
2019-02-07T03:18:11.778Z,99833.78
2019-02-07T03:21:40.983Z,99825.58
2019-02-07T03:25:03.247Z,99796.92
2019-02-07T03:28:24.562Z,99798.36
2019-02-07T03:31:46.868Z,99783.20
2019-02-07T03:35:09.119Z,99766.75
2019-02-07T03:38:38.276Z,99758.26
2019-02-07T03:42:06.244Z,99746.66
2019-02-07T03:48:50.210Z,99734.12
2019-02-07T03:52:12.050Z,99743.35
2019-02-07T03:55:33.402Z,99725.73
2019-02-07T03:58:54.762Z,99723.41
2019-02-07T04:02:16.177Z,99722.73
2019-02-07T04:05:45.269Z,99717.73
2019-02-07T04:09:07.329Z,99692.75
2019-02-07T04:12:36.412Z,99712.01
2019-02-07T04:15:58.475Z,99707.29
2019-02-07T04:19:20.218Z,99713.28
2019-02-07T04:22:42.287Z,99699.47
2019-02-07T04:26:05.121Z,99689.57
2019-02-07T04:29:22.764Z,99695.40
2019-02-07T04:32:41.550Z,99686.97
2019-02-07T04:36:10.701Z,99682.25
2019-02-07T04:39:35.498Z,99669.00
2019-02-07T04:43:25.065Z,99658.02
2019-02-07T04:46:46.750Z,99666.66
2019-02-07T04:50:15.801Z,99653.14
2019-02-07T04:53:35.956Z,99645.29
2019-02-07T04:57:05.043Z,99648.18
2019-02-07T05:00:32.264Z,99655.58
2019-02-07T05:04:01.377Z,99649.59
2019-02-07T05:07:23.786Z,99639.09
2019-02-07T05:10:34.019Z,99631.16
2019-02-07T05:14:03.132Z,99627.56
2019-02-07T05:17:25.263Z,99620.14
2019-02-07T05:20:38.938Z,99618.74
2019-02-07T05:23:56.176Z,99619.58
2019-02-07T05:27:19.884Z,99604.05
2019-02-07T05:30:49.251Z,99612.16
2019-02-07T05:34:17.098Z,99600.00
2019-02-07T05:37:49.726Z,99600.89
2019-02-07T05:41:11.244Z,99592.94
2019-02-07T05:44:32.817Z,99566.47
2019-02-07T05:48:01.902Z,99577.97
2019-02-07T05:51:23.993Z,99566.86
2019-02-07T05:54:53.074Z,99561.55
2019-02-07T05:58:14.537Z,99563.42
2019-02-07T06:01:43.644Z,99547.87
2019-02-07T06:05:11.740Z,99570.11
2019-02-07T06:08:40.879Z,99527.45
2019-02-07T06:12:02.496Z,99529.14
2019-02-07T06:15:31.779Z,99534.11
2019-02-07T06:18:53.569Z,99528.09
2019-02-07T06:22:22.668Z,99516.39
2019-02-07T06:25:44.064Z,99514.33
2019-02-07T06:29:13.145Z,99523.04
2019-02-07T06:32:38.149Z,99512.50
2019-02-07T06:36:07.234Z,99520.83
2019-02-07T06:39:29.992Z,99499.42
2019-02-07T06:42:59.075Z,99505.06
2019-02-07T06:46:20.755Z,99519.05
2019-02-07T06:49:49.865Z,99508.72
2019-02-07T06:53:04.148Z,99505.18
2019-02-07T06:56:33.240Z,99506.27
2019-02-07T06:59:54.664Z,99502.20
2019-02-07T07:03:23.888Z,99508.48
2019-02-07T07:06:34.223Z,99499.55
2019-02-07T07:09:56.589Z,99503.66
2019-02-07T07:13:16.645Z,99498.84
2019-02-07T07:16:38.365Z,99505.59
2019-02-07T07:20:07.446Z,99492.58
2019-02-07T07:23:29.107Z,99505.03
2019-02-07T07:26:51.151Z,99517.67
2019-02-07T07:30:16.080Z,99504.87
2019-02-07T07:33:45.203Z,99499.19
2019-02-07T07:37:05.276Z,99499.53
2019-02-07T07:40:34.358Z,99495.53
2019-02-07T07:43:51.195Z,99493.89
2019-02-07T07:47:22.002Z,99489.78
2019-02-07T07:50:49.918Z,99489.30
2019-02-07T07:54:20.570Z,99503.98
2019-02-07T07:57:34.614Z,99491.88
2019-02-07T08:01:03.712Z,99506.08
2019-02-07T08:04:29.165Z,99506.12
2019-02-07T08:07:49.512Z,99501.48
2019-02-07T08:11:06.911Z,99495.72
2019-02-07T08:14:35.648Z,99494.41
2019-02-07T08:18:00.257Z,99500.10
2019-02-07T08:21:22.094Z,99514.58
2019-02-07T08:24:43.787Z,99506.60
2019-02-07T08:28:06.165Z,99504.28
2019-02-07T08:31:35.269Z,99506.00
2019-02-07T08:34:56.866Z,99509.47
2019-02-07T08:38:25.965Z,99528.47
2019-02-07T08:41:37.816Z,99511.56
2019-02-07T08:45:07.000Z,99513.08
2019-02-07T08:48:26.891Z,99521.19
2019-02-07T08:51:54.874Z,99526.89
2019-02-07T08:55:24.476Z,99515.40
2019-02-07T08:58:35.773Z,99528.91
2019-02-07T09:02:04.896Z,99519.17
2019-02-07T09:05:26.334Z,99532.19
2019-02-07T09:08:40.393Z,99537.07
2019-02-07T09:12:09.483Z,99541.78
2019-02-07T09:15:28.496Z,99533.34
2019-02-07T09:18:57.582Z,99555.87
2019-02-07T09:22:25.265Z,99555.04
2019-02-07T09:25:52.589Z,99549.31
2019-02-07T09:29:14.759Z,99558.82
2019-02-07T09:32:43.894Z,99547.48
2019-02-07T09:36:05.969Z,99553.75
2019-02-07T09:39:35.079Z,99556.90
2019-02-07T09:42:56.721Z,99545.17
2019-02-07T09:46:27.337Z,99558.74
2019-02-07T09:49:48.866Z,99551.42
2019-02-07T09:53:24.148Z,99550.85
2019-02-07T09:56:47.306Z,99565.47
2019-02-07T10:00:09.408Z,99560.22
2019-02-07T10:03:27.713Z,99562.81
2019-02-07T10:06:56.823Z,99571.46
2019-02-07T10:10:19.131Z,99567.28
2019-02-07T10:13:42.079Z,99575.77
2019-02-07T10:17:03.432Z,99582.30
2019-02-07T10:20:32.595Z,99580.47
2019-02-07T10:23:50.564Z,99585.09
2019-02-07T10:27:19.817Z,99591.85
2019-02-07T10:30:33.199Z,99585.84
2019-02-07T10:33:54.752Z,99592.41
2019-02-07T10:37:23.919Z,99600.17
2019-02-07T10:40:40.171Z,99605.55
2019-02-07T10:44:10.991Z,99604.03
2019-02-07T10:47:32.393Z,99596.39
2019-02-07T10:51:03.222Z,99615.33
2019-02-07T10:54:25.506Z,99602.57
2019-02-07T10:57:54.935Z,99609.59
2019-02-07T11:01:14.314Z,99591.36
2019-02-07T11:04:43.813Z,99612.69
2019-02-07T11:08:05.326Z,99591.10
2019-02-07T11:11:31.367Z,99599.64
2019-02-07T11:14:53.038Z,99600.92
2019-02-07T11:18:14.761Z,99588.97
2019-02-07T11:21:36.252Z,99575.72
2019-02-07T11:24:58.254Z,99579.11
2019-02-07T11:28:19.581Z,99603.17
2019-02-07T11:31:40.319Z,99592.25
2019-02-07T11:35:02.007Z,99590.95
2019-02-07T11:38:23.339Z,99600.43
2019-02-07T11:41:52.460Z,99578.88
2019-02-07T11:45:14.870Z,99595.11
2019-02-07T11:48:32.865Z,99579.02
2019-02-07T11:51:54.233Z,99586.11
2019-02-07T11:55:25.103Z,99582.48
2019-02-07T11:58:46.904Z,99586.48
2019-02-07T12:02:09.492Z,99589.90
2019-02-07T12:05:38.725Z,99582.44
2019-02-07T12:08:49.636Z,99563.58
2019-02-07T12:12:18.764Z,99593.14
2019-02-07T12:15:40.231Z,99577.48
2019-02-07T12:19:17.649Z,99579.06
2019-02-07T12:22:33.292Z,99588.09
2019-02-07T12:26:02.426Z,99573.95
2019-02-07T12:29:24.137Z,99579.30
2019-02-07T12:35:46.441Z,99564.23
2019-02-07T12:39:07.740Z,99570.91
2019-02-07T12:42:29.431Z,99559.23
2019-02-07T12:45:58.568Z,99558.13
2019-02-07T12:49:28.920Z,99553.01
2019-02-07T12:52:51.512Z,99560.65
2019-02-07T12:56:12.917Z,99556.67
2019-02-07T12:59:40.453Z,99565.70
2019-02-07T13:03:09.573Z,99555.38
2019-02-07T13:06:34.452Z,99564.48
2019-02-07T13:09:58.704Z,99567.82
2019-02-07T13:13:52.464Z,99565.59
2019-02-07T13:17:14.107Z,99559.95
2019-02-07T13:20:34.800Z,99566.09
2019-02-07T13:24:03.973Z,99564.61
2019-02-07T13:27:18.485Z,99573.52
2019-02-07T13:30:47.563Z,99566.09
2019-02-07T13:34:12.527Z,99565.76
2019-02-07T13:37:41.714Z,99567.67
2019-02-07T13:41:09.372Z,99563.80
2019-02-07T13:44:36.755Z,99568.03
2019-02-07T13:48:05.854Z,99569.17
2019-02-07T13:51:28.020Z,99561.44
2019-02-07T13:54:57.139Z,99580.41
2019-02-07T13:58:19.259Z,99563.31
2019-02-07T14:01:48.442Z,99552.23
2019-02-07T14:05:10.215Z,99555.98
2019-02-07T14:08:39.327Z,99552.52
2019-02-07T14:12:01.457Z,99563.52
2019-02-07T14:15:23.249Z,99563.88
2019-02-07T14:18:52.431Z,99553.34
2019-02-07T14:22:09.033Z,99567.45
2019-02-07T14:25:30.759Z,99536.84
2019-02-07T14:28:59.868Z,99562.09
2019-02-07T14:32:04.104Z,99562.85
2019-02-07T14:35:15.527Z,99559.17
2019-02-07T14:38:18.933Z,99559.11
2019-02-07T14:41:28.698Z,99560.28
2019-02-07T14:44:23.449Z,99573.34
2019-02-07T14:47:14.392Z,99562.87
2019-02-07T14:49:57.684Z,99594.50
2019-02-07T14:52:48.623Z,99590.69
2019-02-07T14:55:34.165Z,99604.34
2019-02-07T14:58:25.095Z,99596.10
2019-02-07T15:01:08.580Z,99598.88
2019-02-07T15:03:59.525Z,99594.26
2019-02-07T15:06:43.744Z,99588.59
2019-02-07T15:09:34.949Z,99595.44
2019-02-07T15:12:18.359Z,99591.25
2019-02-07T15:15:01.521Z,99594.67
2019-02-07T15:17:52.439Z,99604.41
2019-02-07T15:20:36.333Z,99597.94
2019-02-07T15:23:27.252Z,99594.75
2019-02-07T15:26:10.364Z,99589.55
2019-02-07T15:29:01.276Z,99601.33
2019-02-07T15:31:44.316Z,99600.93
2019-02-07T15:34:35.951Z,99585.86
2019-02-07T15:37:19.706Z,99627.92
2019-02-07T15:40:51.853Z,99602.34
2019-02-07T15:43:37.285Z,99590.89
2019-02-07T15:46:28.304Z,99614.01
2019-02-07T15:49:19.244Z,99606.67
2019-02-07T15:52:23.907Z,99599.48
2019-02-07T15:55:35.832Z,99619.28
2019-02-07T15:58:21.928Z,99604.04
2019-02-07T16:01:19.979Z,99597.47
2019-02-07T16:04:25.696Z,99583.42
2019-02-07T16:07:16.979Z,99597.70
2019-02-07T16:10:21.750Z,99592.45
2019-02-07T16:13:12.738Z,99582.86
2019-02-07T16:15:56.272Z,99595.94
2019-02-07T16:18:47.206Z,99602.97
2019-02-07T16:21:30.427Z,99595.67
2019-02-07T16:24:21.379Z,99605.41
2019-02-07T16:27:04.790Z,99615.55
2019-02-07T16:32:58.738Z,99629.14
2019-02-07T16:35:49.802Z,99640.95
2019-02-07T16:38:32.994Z,99667.75
2019-02-07T16:41:23.948Z,99659.41
2019-02-07T16:44:07.914Z,99652.70
2019-02-07T16:46:58.853Z,99642.14
2019-02-07T16:49:42.262Z,99640.33
2019-02-07T16:52:33.220Z,99643.16
2019-02-07T16:55:17.163Z,99635.98
2019-02-07T16:58:08.092Z,99643.98
2019-02-07T17:01:20.098Z,99639.56
2019-02-07T17:04:03.531Z,99641.08
2019-02-07T17:06:54.509Z,99644.83
2019-02-07T17:09:42.186Z,99645.16
2019-02-07T17:12:33.443Z,99650.78
2019-02-07T17:15:18.014Z,99654.42
2019-02-07T17:18:09.075Z,99654.67
2019-02-07T17:20:52.468Z,99666.80
2019-02-07T17:23:43.424Z,99665.61
2019-02-07T17:26:26.517Z,99660.49
2019-02-07T17:29:17.504Z,99686.39
2019-02-07T17:32:00.826Z,99665.99
2019-02-07T17:34:51.805Z,99662.43
2019-02-07T17:37:35.662Z,99694.84
2019-02-07T17:40:26.671Z,99695.42
2019-02-07T17:43:17.622Z,99702.64
2019-02-07T17:46:01.553Z,99697.45
2019-02-07T17:48:52.523Z,99705.27
2019-02-07T17:51:38.808Z,99702.81
2019-02-07T17:54:28.845Z,99704.58
2019-02-07T17:57:33.721Z,99722.33
2019-02-07T18:00:47.652Z,99706.50
2019-02-07T18:03:31.707Z,99719.70
2019-02-07T18:06:22.687Z,99717.52
2019-02-07T18:09:08.489Z,99724.99
2019-02-07T18:11:51.771Z,99724.74
2019-02-07T18:14:42.667Z,99729.99
2019-02-07T18:17:26.554Z,99732.08
2019-02-07T18:20:18.107Z,99734.91
2019-02-07T18:23:01.244Z,99734.25
2019-02-07T18:25:52.251Z,99748.48
2019-02-07T18:28:38.179Z,99745.98
2019-02-07T18:31:29.108Z,99744.95
2019-02-07T18:34:12.566Z,99747.69
2019-02-07T18:37:03.478Z,99753.80
2019-02-07T18:40:09.818Z,99745.80
2019-02-07T18:46:10.271Z,99752.94
2019-02-07T18:49:01.617Z,99761.73
2019-02-07T18:51:46.017Z,99750.80
2019-02-07T18:54:37.031Z,99770.34
2019-02-07T18:57:22.669Z,99770.53
2019-02-07T19:04:09.897Z,99773.80
2019-02-07T19:06:53.161Z,99789.16
2019-02-07T19:09:46.173Z,99790.92
2019-02-07T19:12:49.038Z,99801.45
2019-02-07T19:15:52.848Z,99798.23
2019-02-07T19:18:36.806Z,99788.34
2019-02-07T19:21:28.013Z,99809.58
2019-02-07T19:24:11.511Z,99811.16
2019-02-07T19:27:02.441Z,99804.98
2019-02-07T19:29:46.030Z,99809.70
2019-02-07T19:32:36.943Z,99811.88
2019-02-07T19:35:21.248Z,99804.20
2019-02-07T19:38:12.161Z,99818.31
2019-02-07T19:41:16.773Z,99816.78
2019-02-07T19:44:07.721Z,99827.08
2019-02-07T19:46:51.579Z,99826.11
2019-02-07T19:49:42.543Z,99824.57
2019-02-07T19:52:26.250Z,99827.38
2019-02-07T19:55:29.561Z,99822.43
2019-02-07T19:58:20.801Z,99827.95
2019-02-07T20:01:05.550Z,99834.70
2019-02-07T20:04:17.623Z,99838.37
2019-02-07T20:07:01.585Z,99831.41
2019-02-07T20:09:52.710Z,99824.51
2019-02-07T20:12:36.637Z,99832.80
2019-02-07T20:15:32.674Z,99835.31
2019-02-07T20:18:16.716Z,99836.35
2019-02-07T20:21:07.739Z,99841.11
2019-02-07T20:23:51.676Z,99847.70
2019-02-07T20:26:42.580Z,99853.16
2019-02-07T20:29:26.368Z,99857.95
2019-02-07T20:32:17.289Z,99855.43
2019-02-07T20:35:00.725Z,99859.70
2019-02-07T20:37:51.689Z,99856.70
2019-02-07T20:40:35.285Z,99856.47
2019-02-07T20:43:26.472Z,99853.16
2019-02-07T20:46:09.813Z,99870.94
2019-02-07T20:49:00.721Z,99871.63
2019-02-07T20:51:44.359Z,99883.42
2019-02-07T20:54:35.236Z,99876.53
2019-02-07T20:57:18.382Z,99888.49
2019-02-07T21:03:44.737Z,99883.42
2019-02-07T21:06:28.766Z,99883.52
2019-02-07T21:09:12.293Z,99866.73
2019-02-07T21:12:03.201Z,99886.22
2019-02-07T21:14:47.063Z,99884.22
2019-02-07T21:17:37.980Z,99888.14
2019-02-07T21:20:42.452Z,99888.59
2019-02-07T21:23:33.366Z,99892.18
2019-02-07T21:26:17.199Z,99906.48
2019-02-07T21:29:10.431Z,99905.55
2019-02-07T21:32:15.431Z,99908.94
2019-02-07T21:35:07.002Z,99920.64
2019-02-07T21:37:50.791Z,99919.06
2019-02-07T21:40:41.703Z,99927.30
2019-02-07T21:43:46.038Z,99923.34
2019-02-07T21:46:36.937Z,99915.66
2019-02-07T21:49:20.841Z,99920.48
2019-02-07T21:52:11.813Z,99925.52
2019-02-07T21:54:55.210Z,99911.04
2019-02-07T21:57:46.314Z,99932.23
2019-02-07T22:00:33.471Z,99941.44
2019-02-07T22:03:24.434Z,99924.54
2019-02-07T22:06:08.211Z,99923.21
2019-02-07T22:08:59.407Z,99931.38
2019-02-07T22:11:42.716Z,99941.09
2019-02-07T22:14:33.639Z,99940.72
2019-02-07T22:17:17.600Z,99949.20
2019-02-07T22:20:12.356Z,99949.58
2019-02-07T22:22:56.588Z,99943.44
2019-02-07T22:25:47.484Z,99946.30
2019-02-07T22:28:31.432Z,99940.41
2019-02-07T22:31:22.400Z,99935.86
2019-02-07T22:34:06.391Z,99953.41
2019-02-07T22:36:57.425Z,99957.16
2019-02-07T22:39:41.245Z,99953.47
2019-02-07T22:42:32.246Z,99958.09
2019-02-07T22:45:16.130Z,99974.20
2019-02-07T22:48:08.392Z,99955.74
2019-02-07T22:50:51.938Z,99970.44
2019-02-07T22:53:42.847Z,99975.63
2019-02-07T22:56:26.176Z,99971.75
2019-02-07T22:59:17.079Z,99985.17
2019-02-07T23:02:00.981Z,99975.56
2019-02-07T23:04:51.857Z,99972.36
2019-02-07T23:07:35.835Z,99985.91
2019-02-07T23:10:27.069Z,99974.41
2019-02-07T23:13:11.062Z,99982.11
2019-02-07T23:16:01.975Z,99984.22
2019-02-07T23:18:45.662Z,99992.75
2019-02-07T23:21:36.556Z,99983.48
2019-02-07T23:24:20.419Z,99985.31
2019-02-07T23:27:11.760Z,99989.84
2019-02-07T23:29:55.671Z,99994.41
2019-02-07T23:32:46.635Z,99998.31
2019-02-07T23:35:29.869Z,99987.45
2019-02-07T23:38:20.828Z,99986.88
2019-02-07T23:41:04.367Z,99993.01
2019-02-07T23:43:55.280Z,99989.08
2019-02-07T23:46:59.885Z,99995.78
2019-02-07T23:49:43.259Z,99993.23
2019-02-07T23:52:34.501Z,100008.78
2019-02-07T23:55:17.890Z,100010.09
2019-02-07T23:58:08.809Z,100004.02
